sensor_id;sensor_type;location;lat;lon;timestamp;P1;durP1;ratioP1;P2;durP2;ratioP2
29550;SDS011;16488;52.396;10.696;2023-03-05T00:00:10;11.13;;;4.05;;
29550;SDS011;16488;52.396;10.696;2023-03-05T00:02:37;17.55;;;4.45;;
29550;SDS011;16488;52.396;10.696;2023-03-05T00:05:03;19.08;;;4.65;;
29550;SDS011;16488;52.396;10.696;2023-03-05T00:07:29;20.58;;;5.55;;
29550;SDS011;16488;52.396;10.696;2023-03-05T00:09:57;16.02;;;4.65;;
29550;SDS011;16488;52.396;10.696;2023-03-05T00:12:24;14.15;;;4.57;;
29550;SDS011;16488;52.396;10.696;2023-03-05T00:14:49;12.63;;;4.53;;
29550;SDS011;16488;52.396;10.696;2023-03-05T00:17:15;17.38;;;5.38;;
29550;SDS011;16488;52.396;10.696;2023-03-05T00:19:40;18.13;;;4.97;;
29550;SDS011;16488;52.396;10.696;2023-03-05T00:22:06;25.20;;;6.28;;
29550;SDS011;16488;52.396;10.696;2023-03-05T00:24:32;20.70;;;6.10;;
29550;SDS011;16488;52.396;10.696;2023-03-05T00:26:57;21.85;;;5.75;;
29550;SDS011;16488;52.396;10.696;2023-03-05T00:29:23;18.52;;;6.35;;
29550;SDS011;16488;52.396;10.696;2023-03-05T00:31:49;17.92;;;6.10;;
29550;SDS011;16488;52.396;10.696;2023-03-05T00:34:15;28.55;;;5.82;;
29550;SDS011;16488;52.396;10.696;2023-03-05T00:36:43;17.95;;;5.80;;
29550;SDS011;16488;52.396;10.696;2023-03-05T00:39:11;16.30;;;7.55;;
29550;SDS011;16488;52.396;10.696;2023-03-05T00:41:37;18.45;;;5.50;;
29550;SDS011;16488;52.396;10.696;2023-03-05T00:44:04;19.65;;;7.55;;
29550;SDS011;16488;52.396;10.696;2023-03-05T00:46:29;15.13;;;5.03;;
29550;SDS011;16488;52.396;10.696;2023-03-05T00:48:55;17.85;;;5.82;;
29550;SDS011;16488;52.396;10.696;2023-03-05T00:51:21;25.48;;;7.28;;
29550;SDS011;16488;52.396;10.696;2023-03-05T00:56:12;21.50;;;7.70;;
29550;SDS011;16488;52.396;10.696;2023-03-05T00:58:38;16.48;;;5.63;;
29550;SDS011;16488;52.396;10.696;2023-03-05T01:01:04;17.25;;;5.22;;
29550;SDS011;16488;52.396;10.696;2023-03-05T01:03:30;20.10;;;6.13;;
29550;SDS011;16488;52.396;10.696;2023-03-05T01:05:57;16.40;;;5.70;;
29550;SDS011;16488;52.396;10.696;2023-03-05T01:08:24;21.52;;;5.15;;
29550;SDS011;16488;52.396;10.696;2023-03-05T01:13:17;10.30;;;4.88;;
29550;SDS011;16488;52.396;10.696;2023-03-05T01:15:43;15.80;;;6.28;;
29550;SDS011;16488;52.396;10.696;2023-03-05T01:18:08;22.42;;;6.25;;
29550;SDS011;16488;52.396;10.696;2023-03-05T01:20:34;19.73;;;5.18;;
29550;SDS011;16488;52.396;10.696;2023-03-05T01:22:59;19.50;;;6.25;;
29550;SDS011;16488;52.396;10.696;2023-03-05T01:25:26;10.68;;;5.30;;
29550;SDS011;16488;52.396;10.696;2023-03-05T01:30:17;21.00;;;5.80;;
29550;SDS011;16488;52.396;10.696;2023-03-05T01:32:43;20.80;;;5.70;;
29550;SDS011;16488;52.396;10.696;2023-03-05T01:35:10;16.90;;;5.82;;
29550;SDS011;16488;52.396;10.696;2023-03-05T01:37:41;13.82;;;6.35;;
29550;SDS011;16488;52.396;10.696;2023-03-05T01:40:08;23.90;;;5.70;;
29550;SDS011;16488;52.396;10.696;2023-03-05T01:42:34;12.25;;;5.07;;
29550;SDS011;16488;52.396;10.696;2023-03-05T01:45:07;15.05;;;5.35;;
29550;SDS011;16488;52.396;10.696;2023-03-05T01:47:35;17.92;;;5.80;;
29550;SDS011;16488;52.396;10.696;2023-03-05T01:50:02;16.63;;;5.55;;
29550;SDS011;16488;52.396;10.696;2023-03-05T01:52:30;20.80;;;5.80;;
29550;SDS011;16488;52.396;10.696;2023-03-05T01:55:00;20.98;;;6.40;;
29550;SDS011;16488;52.396;10.696;2023-03-05T01:57:34;20.38;;;6.32;;
29550;SDS011;16488;52.396;10.696;2023-03-05T02:00:19;12.93;;;6.47;;
29550;SDS011;16488;52.396;10.696;2023-03-05T02:03:11;14.38;;;5.15;;
29550;SDS011;16488;52.396;10.696;2023-03-05T02:05:38;21.63;;;6.00;;
29550;SDS011;16488;52.396;10.696;2023-03-05T02:08:09;17.95;;;5.78;;
29550;SDS011;16488;52.396;10.696;2023-03-05T02:10:39;14.73;;;5.97;;
29550;SDS011;16488;52.396;10.696;2023-03-05T02:13:09;17.05;;;5.97;;
29550;SDS011;16488;52.396;10.696;2023-03-05T02:15:38;17.33;;;5.55;;
29550;SDS011;16488;52.396;10.696;2023-03-05T02:18:04;10.57;;;5.05;;
29550;SDS011;16488;52.396;10.696;2023-03-05T02:20:51;17.77;;;6.07;;
29550;SDS011;16488;52.396;10.696;2023-03-05T02:23:18;19.45;;;4.90;;
29550;SDS011;16488;52.396;10.696;2023-03-05T02:25:45;21.83;;;5.45;;
29550;SDS011;16488;52.396;10.696;2023-03-05T02:28:13;18.80;;;5.13;;
29550;SDS011;16488;52.396;10.696;2023-03-05T02:30:47;12.60;;;4.75;;
29550;SDS011;16488;52.396;10.696;2023-03-05T02:33:13;10.70;;;4.63;;
29550;SDS011;16488;52.396;10.696;2023-03-05T02:35:41;18.05;;;6.65;;
29550;SDS011;16488;52.396;10.696;2023-03-05T02:38:11;13.18;;;3.55;;
29550;SDS011;16488;52.396;10.696;2023-03-05T02:40:41;13.68;;;3.35;;
29550;SDS011;16488;52.396;10.696;2023-03-05T02:43:07;17.85;;;4.00;;
29550;SDS011;16488;52.396;10.696;2023-03-05T02:45:33;25.80;;;5.63;;
29550;SDS011;16488;52.396;10.696;2023-03-05T02:47:59;13.95;;;4.85;;
29550;SDS011;16488;52.396;10.696;2023-03-05T02:50:25;16.50;;;5.00;;
29550;SDS011;16488;52.396;10.696;2023-03-05T02:52:52;15.10;;;4.00;;
29550;SDS011;16488;52.396;10.696;2023-03-05T02:55:18;7.50;;;3.33;;
29550;SDS011;16488;52.396;10.696;2023-03-05T02:57:44;7.25;;;3.72;;
29550;SDS011;16488;52.396;10.696;2023-03-05T03:00:10;15.60;;;4.47;;
29550;SDS011;16488;52.396;10.696;2023-03-05T03:02:36;8.55;;;3.55;;
29550;SDS011;16488;52.396;10.696;2023-03-05T03:05:02;10.27;;;4.30;;
29550;SDS011;16488;52.396;10.696;2023-03-05T03:07:28;22.50;;;3.88;;
29550;SDS011;16488;52.396;10.696;2023-03-05T03:09:54;11.68;;;3.40;;
29550;SDS011;16488;52.396;10.696;2023-03-05T03:12:19;17.65;;;4.00;;
29550;SDS011;16488;52.396;10.696;2023-03-05T03:14:45;10.57;;;3.05;;
29550;SDS011;16488;52.396;10.696;2023-03-05T03:17:12;27.77;;;4.25;;
29550;SDS011;16488;52.396;10.696;2023-03-05T03:19:39;12.75;;;3.70;;
29550;SDS011;16488;52.396;10.696;2023-03-05T03:22:06;13.88;;;3.30;;
29550;SDS011;16488;52.396;10.696;2023-03-05T03:24:33;16.08;;;4.00;;
29550;SDS011;16488;52.396;10.696;2023-03-05T03:27:00;16.20;;;3.45;;
29550;SDS011;16488;52.396;10.696;2023-03-05T03:29:26;11.88;;;3.22;;
29550;SDS011;16488;52.396;10.696;2023-03-05T03:34:18;14.95;;;4.18;;
29550;SDS011;16488;52.396;10.696;2023-03-05T03:36:44;13.32;;;4.35;;
29550;SDS011;16488;52.396;10.696;2023-03-05T03:39:11;16.02;;;4.60;;
29550;SDS011;16488;52.396;10.696;2023-03-05T03:41:42;12.45;;;4.32;;
29550;SDS011;16488;52.396;10.696;2023-03-05T03:44:09;12.32;;;5.07;;
29550;SDS011;16488;52.396;10.696;2023-03-05T03:46:36;18.45;;;5.57;;
29550;SDS011;16488;52.396;10.696;2023-03-05T03:49:03;16.45;;;5.35;;
29550;SDS011;16488;52.396;10.696;2023-03-05T03:51:30;17.85;;;5.00;;
29550;SDS011;16488;52.396;10.696;2023-03-05T03:53:55;14.82;;;5.03;;
29550;SDS011;16488;52.396;10.696;2023-03-05T03:56:21;17.27;;;4.93;;
29550;SDS011;16488;52.396;10.696;2023-03-05T03:58:50;8.90;;;4.22;;
29550;SDS011;16488;52.396;10.696;2023-03-05T04:01:17;14.18;;;4.55;;
29550;SDS011;16488;52.396;10.696;2023-03-05T04:03:44;27.15;;;4.97;;
29550;SDS011;16488;52.396;10.696;2023-03-05T04:06:09;13.95;;;4.80;;
29550;SDS011;16488;52.396;10.696;2023-03-05T04:08:35;17.25;;;4.70;;
29550;SDS011;16488;52.396;10.696;2023-03-05T04:11:01;17.80;;;4.10;;
29550;SDS011;16488;52.396;10.696;2023-03-05T04:13:26;14.75;;;4.55;;
29550;SDS011;16488;52.396;10.696;2023-03-05T04:15:52;12.70;;;4.40;;
29550;SDS011;16488;52.396;10.696;2023-03-05T04:18:19;17.15;;;4.30;;
29550;SDS011;16488;52.396;10.696;2023-03-05T04:20:44;16.85;;;3.83;;
29550;SDS011;16488;52.396;10.696;2023-03-05T04:23:10;8.00;;;3.80;;
29550;SDS011;16488;52.396;10.696;2023-03-05T04:25:36;12.48;;;3.88;;
29550;SDS011;16488;52.396;10.696;2023-03-05T04:28:01;9.77;;;4.40;;
29550;SDS011;16488;52.396;10.696;2023-03-05T04:30:27;21.63;;;4.35;;
29550;SDS011;16488;52.396;10.696;2023-03-05T04:32:53;7.85;;;3.42;;
29550;SDS011;16488;52.396;10.696;2023-03-05T04:35:18;11.20;;;5.32;;
29550;SDS011;16488;52.396;10.696;2023-03-05T04:37:44;13.75;;;4.38;;
29550;SDS011;16488;52.396;10.696;2023-03-05T04:40:10;6.55;;;4.10;;
29550;SDS011;16488;52.396;10.696;2023-03-05T04:42:36;10.95;;;4.15;;
29550;SDS011;16488;52.396;10.696;2023-03-05T04:45:02;10.77;;;3.45;;
29550;SDS011;16488;52.396;10.696;2023-03-05T04:47:28;13.13;;;4.80;;
29550;SDS011;16488;52.396;10.696;2023-03-05T04:49:54;16.02;;;4.75;;
29550;SDS011;16488;52.396;10.696;2023-03-05T04:52:19;12.25;;;4.35;;
29550;SDS011;16488;52.396;10.696;2023-03-05T04:54:45;15.95;;;4.53;;
29550;SDS011;16488;52.396;10.696;2023-03-05T04:57:11;15.93;;;6.20;;
29550;SDS011;16488;52.396;10.696;2023-03-05T05:02:02;12.68;;;4.47;;
29550;SDS011;16488;52.396;10.696;2023-03-05T05:04:28;11.13;;;4.32;;
29550;SDS011;16488;52.396;10.696;2023-03-05T05:06:57;23.13;;;5.72;;
29550;SDS011;16488;52.396;10.696;2023-03-05T05:09:23;16.25;;;6.22;;
29550;SDS011;16488;52.396;10.696;2023-03-05T05:11:49;8.70;;;4.13;;
29550;SDS011;16488;52.396;10.696;2023-03-05T05:14:15;27.38;;;5.63;;
29550;SDS011;16488;52.396;10.696;2023-03-05T05:16:41;13.63;;;5.45;;
29550;SDS011;16488;52.396;10.696;2023-03-05T05:19:07;16.33;;;4.47;;
29550;SDS011;16488;52.396;10.696;2023-03-05T05:21:32;14.05;;;5.20;;
29550;SDS011;16488;52.396;10.696;2023-03-05T05:23:58;8.68;;;4.63;;
29550;SDS011;16488;52.396;10.696;2023-03-05T05:26:24;13.27;;;5.45;;
29550;SDS011;16488;52.396;10.696;2023-03-05T05:28:50;15.23;;;5.00;;
29550;SDS011;16488;52.396;10.696;2023-03-05T05:31:16;12.15;;;4.35;;
29550;SDS011;16488;52.396;10.696;2023-03-05T05:36:08;11.43;;;5.07;;
29550;SDS011;16488;52.396;10.696;2023-03-05T05:38:36;13.32;;;5.45;;
29550;SDS011;16488;52.396;10.696;2023-03-05T05:41:05;13.93;;;4.93;;
29550;SDS011;16488;52.396;10.696;2023-03-05T05:43:33;15.27;;;5.20;;
29550;SDS011;16488;52.396;10.696;2023-03-05T05:45:59;13.95;;;4.85;;
29550;SDS011;16488;52.396;10.696;2023-03-05T05:48:27;14.63;;;5.15;;
29550;SDS011;16488;52.396;10.696;2023-03-05T05:50:54;12.65;;;5.15;;
29550;SDS011;16488;52.396;10.696;2023-03-05T05:53:20;12.48;;;5.50;;
29550;SDS011;16488;52.396;10.696;2023-03-05T05:55:46;13.88;;;4.90;;
29550;SDS011;16488;52.396;10.696;2023-03-05T05:58:11;16.60;;;4.80;;
29550;SDS011;16488;52.396;10.696;2023-03-05T06:00:37;11.20;;;5.50;;
29550;SDS011;16488;52.396;10.696;2023-03-05T06:03:03;14.77;;;5.32;;
29550;SDS011;16488;52.396;10.696;2023-03-05T06:05:29;14.38;;;5.65;;
29550;SDS011;16488;52.396;10.696;2023-03-05T06:07:54;15.02;;;5.80;;
29550;SDS011;16488;52.396;10.696;2023-03-05T06:10:20;12.70;;;5.47;;
29550;SDS011;16488;52.396;10.696;2023-03-05T06:12:45;12.05;;;5.47;;
29550;SDS011;16488;52.396;10.696;2023-03-05T06:15:11;13.55;;;5.88;;
29550;SDS011;16488;52.396;10.696;2023-03-05T06:17:37;18.08;;;6.57;;
29550;SDS011;16488;52.396;10.696;2023-03-05T06:20:03;28.20;;;6.97;;
29550;SDS011;16488;52.396;10.696;2023-03-05T06:22:30;11.98;;;5.75;;
29550;SDS011;16488;52.396;10.696;2023-03-05T06:24:59;12.35;;;6.63;;
29550;SDS011;16488;52.396;10.696;2023-03-05T06:27:25;13.93;;;6.97;;
29550;SDS011;16488;52.396;10.696;2023-03-05T06:29:51;12.30;;;6.32;;
29550;SDS011;16488;52.396;10.696;2023-03-05T06:32:17;14.52;;;6.53;;
29550;SDS011;16488;52.396;10.696;2023-03-05T06:34:43;21.48;;;6.75;;
29550;SDS011;16488;52.396;10.696;2023-03-05T06:37:08;13.43;;;5.80;;
29550;SDS011;16488;52.396;10.696;2023-03-05T06:39:34;14.88;;;6.10;;
29550;SDS011;16488;52.396;10.696;2023-03-05T06:42:00;13.63;;;6.07;;
29550;SDS011;16488;52.396;10.696;2023-03-05T06:44:25;12.65;;;6.15;;
29550;SDS011;16488;52.396;10.696;2023-03-05T06:46:51;12.20;;;6.50;;
29550;SDS011;16488;52.396;10.696;2023-03-05T06:49:16;11.80;;;5.68;;
29550;SDS011;16488;52.396;10.696;2023-03-05T06:51:42;13.65;;;5.72;;
29550;SDS011;16488;52.396;10.696;2023-03-05T06:54:09;13.75;;;6.35;;
29550;SDS011;16488;52.396;10.696;2023-03-05T06:56:37;13.35;;;5.68;;
29550;SDS011;16488;52.396;10.696;2023-03-05T06:59:04;12.35;;;5.38;;
29550;SDS011;16488;52.396;10.696;2023-03-05T07:01:31;9.73;;;5.75;;
29550;SDS011;16488;52.396;10.696;2023-03-05T07:06:24;11.73;;;6.00;;
29550;SDS011;16488;52.396;10.696;2023-03-05T07:08:53;11.35;;;5.18;;
29550;SDS011;16488;52.396;10.696;2023-03-05T07:11:20;16.23;;;5.97;;
29550;SDS011;16488;52.396;10.696;2023-03-05T07:13:47;15.13;;;5.45;;
29550;SDS011;16488;52.396;10.696;2023-03-05T07:16:13;10.90;;;4.88;;
29550;SDS011;16488;52.396;10.696;2023-03-05T07:18:40;11.85;;;4.70;;
29550;SDS011;16488;52.396;10.696;2023-03-05T07:21:07;16.42;;;5.63;;
29550;SDS011;16488;52.396;10.696;2023-03-05T07:23:33;10.68;;;5.72;;
29550;SDS011;16488;52.396;10.696;2023-03-05T07:28:28;9.00;;;5.32;;
29550;SDS011;16488;52.396;10.696;2023-03-05T07:30:59;10.77;;;4.88;;
29550;SDS011;16488;52.396;10.696;2023-03-05T07:33:26;13.90;;;5.55;;
29550;SDS011;16488;52.396;10.696;2023-03-05T07:35:52;17.52;;;7.25;;
29550;SDS011;16488;52.396;10.696;2023-03-05T07:40:45;9.27;;;4.53;;
29550;SDS011;16488;52.396;10.696;2023-03-05T07:43:11;14.48;;;5.28;;
29550;SDS011;16488;52.396;10.696;2023-03-05T07:45:40;16.88;;;4.95;;
29550;SDS011;16488;52.396;10.696;2023-03-05T07:48:07;11.32;;;5.07;;
29550;SDS011;16488;52.396;10.696;2023-03-05T07:50:36;8.85;;;5.30;;
29550;SDS011;16488;52.396;10.696;2023-03-05T07:53:01;16.65;;;5.35;;
29550;SDS011;16488;52.396;10.696;2023-03-05T07:55:27;9.10;;;4.80;;
29550;SDS011;16488;52.396;10.696;2023-03-05T07:57:53;11.13;;;5.03;;
29550;SDS011;16488;52.396;10.696;2023-03-05T08:00:19;12.45;;;5.05;;
29550;SDS011;16488;52.396;10.696;2023-03-05T08:02:45;11.93;;;5.72;;
29550;SDS011;16488;52.396;10.696;2023-03-05T08:05:11;10.25;;;5.20;;
29550;SDS011;16488;52.396;10.696;2023-03-05T08:07:37;8.18;;;4.30;;
29550;SDS011;16488;52.396;10.696;2023-03-05T08:10:03;8.85;;;3.92;;
29550;SDS011;16488;52.396;10.696;2023-03-05T08:12:30;18.63;;;6.60;;
29550;SDS011;16488;52.396;10.696;2023-03-05T08:14:55;12.10;;;4.88;;
29550;SDS011;16488;52.396;10.696;2023-03-05T08:17:21;13.05;;;5.95;;
29550;SDS011;16488;52.396;10.696;2023-03-05T08:19:46;10.85;;;5.15;;
29550;SDS011;16488;52.396;10.696;2023-03-05T08:22:12;12.40;;;5.13;;
29550;SDS011;16488;52.396;10.696;2023-03-05T08:24:40;11.77;;;4.93;;
29550;SDS011;16488;52.396;10.696;2023-03-05T08:27:06;14.25;;;4.60;;
29550;SDS011;16488;52.396;10.696;2023-03-05T08:29:32;14.13;;;5.60;;
29550;SDS011;16488;52.396;10.696;2023-03-05T08:31:58;8.65;;;4.20;;
29550;SDS011;16488;52.396;10.696;2023-03-05T08:34:23;14.35;;;4.10;;
29550;SDS011;16488;52.396;10.696;2023-03-05T08:36:49;12.02;;;5.43;;
29550;SDS011;16488;52.396;10.696;2023-03-05T08:39:15;10.73;;;4.65;;
29550;SDS011;16488;52.396;10.696;2023-03-05T08:41:40;10.93;;;4.38;;
29550;SDS011;16488;52.396;10.696;2023-03-05T08:44:06;14.00;;;4.85;;
29550;SDS011;16488;52.396;10.696;2023-03-05T08:46:32;6.20;;;4.30;;
29550;SDS011;16488;52.396;10.696;2023-03-05T08:48:57;8.32;;;4.30;;
29550;SDS011;16488;52.396;10.696;2023-03-05T08:51:23;9.60;;;4.57;;
29550;SDS011;16488;52.396;10.696;2023-03-05T08:53:50;8.38;;;3.75;;
29550;SDS011;16488;52.396;10.696;2023-03-05T08:56:16;6.65;;;3.97;;
29550;SDS011;16488;52.396;10.696;2023-03-05T09:01:08;8.63;;;4.38;;
29550;SDS011;16488;52.396;10.696;2023-03-05T09:06:01;17.48;;;4.72;;
29550;SDS011;16488;52.396;10.696;2023-03-05T09:08:29;6.63;;;3.58;;
29550;SDS011;16488;52.396;10.696;2023-03-05T09:10:54;6.97;;;3.95;;
29550;SDS011;16488;52.396;10.696;2023-03-05T09:13:20;9.35;;;3.90;;
29550;SDS011;16488;52.396;10.696;2023-03-05T09:15:52;7.90;;;4.30;;
29550;SDS011;16488;52.396;10.696;2023-03-05T09:18:22;8.70;;;4.53;;
29550;SDS011;16488;52.396;10.696;2023-03-05T09:20:48;11.88;;;4.43;;
29550;SDS011;16488;52.396;10.696;2023-03-05T09:23:13;7.93;;;4.47;;
29550;SDS011;16488;52.396;10.696;2023-03-05T09:25:39;7.78;;;4.30;;
29550;SDS011;16488;52.396;10.696;2023-03-05T09:28:05;7.38;;;3.78;;
29550;SDS011;16488;52.396;10.696;2023-03-05T09:30:31;6.28;;;3.53;;
29550;SDS011;16488;52.396;10.696;2023-03-05T09:32:59;11.98;;;4.78;;
29550;SDS011;16488;52.396;10.696;2023-03-05T09:37:50;12.27;;;3.75;;
29550;SDS011;16488;52.396;10.696;2023-03-05T09:40:16;12.93;;;4.75;;
29550;SDS011;16488;52.396;10.696;2023-03-05T09:45:26;6.20;;;2.50;;
29550;SDS011;16488;52.396;10.696;2023-03-05T09:48:00;2.80;;;1.85;;
29550;SDS011;16488;52.396;10.696;2023-03-05T09:56:11;5.40;;;2.40;;
29550;SDS011;16488;52.396;10.696;2023-03-05T09:58:41;3.17;;;1.65;;
29550;SDS011;16488;52.396;10.696;2023-03-05T10:01:10;4.40;;;1.77;;
29550;SDS011;16488;52.396;10.696;2023-03-05T10:14:23;4.05;;;1.85;;
29550;SDS011;16488;52.396;10.696;2023-03-05T10:28:08;9.63;;;3.80;;
29550;SDS011;16488;52.396;10.696;2023-03-05T10:33:41;6.57;;;3.40;;
29550;SDS011;16488;52.396;10.696;2023-03-05T10:36:30;5.43;;;2.95;;
29550;SDS011;16488;52.396;10.696;2023-03-05T10:45:17;6.35;;;2.00;;
29550;SDS011;16488;52.396;10.696;2023-03-05T10:47:51;4.18;;;2.15;;
29550;SDS011;16488;52.396;10.696;2023-03-05T10:50:25;7.43;;;3.22;;
29550;SDS011;16488;52.396;10.696;2023-03-05T10:55:45;5.10;;;1.90;;
29550;SDS011;16488;52.396;10.696;2023-03-05T10:58:12;6.00;;;2.17;;
29550;SDS011;16488;52.396;10.696;2023-03-05T11:00:39;8.40;;;2.13;;
29550;SDS011;16488;52.396;10.696;2023-03-05T11:03:21;9.27;;;1.40;;
29550;SDS011;16488;52.396;10.696;2023-03-05T11:05:47;1.10;;;1.00;;
29550;SDS011;16488;52.396;10.696;2023-03-05T11:08:23;4.97;;;1.15;;
29550;SDS011;16488;52.396;10.696;2023-03-05T11:17:09;4.90;;;1.70;;
29550;SDS011;16488;52.396;10.696;2023-03-05T11:21:38;5.85;;;1.98;;
29550;SDS011;16488;52.396;10.696;2023-03-05T11:24:05;4.30;;;1.90;;
29550;SDS011;16488;52.396;10.696;2023-03-05T11:26:48;2.63;;;1.60;;
29550;SDS011;16488;52.396;10.696;2023-03-05T11:29:22;7.60;;;2.60;;
29550;SDS011;16488;52.396;10.696;2023-03-05T11:31:53;7.45;;;1.98;;
29550;SDS011;16488;52.396;10.696;2023-03-05T11:34:21;4.93;;;2.00;;
29550;SDS011;16488;52.396;10.696;2023-03-05T11:39:22;3.20;;;1.88;;
29550;SDS011;16488;52.396;10.696;2023-03-05T11:41:56;6.03;;;2.33;;
29550;SDS011;16488;52.396;10.696;2023-03-05T11:44:47;4.30;;;1.83;;
29550;SDS011;16488;52.396;10.696;2023-03-05T11:50:20;8.98;;;2.00;;
29550;SDS011;16488;52.396;10.696;2023-03-05T11:52:56;8.25;;;2.58;;
29550;SDS011;16488;52.396;10.696;2023-03-05T11:55:44;6.38;;;2.03;;
29550;SDS011;16488;52.396;10.696;2023-03-05T11:58:21;10.38;;;2.20;;
29550;SDS011;16488;52.396;10.696;2023-03-05T12:00:54;6.10;;;3.08;;
29550;SDS011;16488;52.396;10.696;2023-03-05T12:03:22;3.58;;;2.40;;
29550;SDS011;16488;52.396;10.696;2023-03-05T12:05:52;5.45;;;2.22;;
29550;SDS011;16488;52.396;10.696;2023-03-05T12:08:23;6.68;;;3.17;;
29550;SDS011;16488;52.396;10.696;2023-03-05T12:10:53;4.72;;;2.53;;
29550;SDS011;16488;52.396;10.696;2023-03-05T12:16:10;7.57;;;3.30;;
29550;SDS011;16488;52.396;10.696;2023-03-05T12:18:57;11.32;;;3.00;;
29550;SDS011;16488;52.396;10.696;2023-03-05T12:21:35;6.53;;;2.65;;
29550;SDS011;16488;52.396;10.696;2023-03-05T12:24:32;5.18;;;2.47;;
29550;SDS011;16488;52.396;10.696;2023-03-05T12:29:37;7.22;;;2.40;;
29550;SDS011;16488;52.396;10.696;2023-03-05T12:32:51;3.45;;;2.35;;
29550;SDS011;16488;52.396;10.696;2023-03-05T12:39:48;5.55;;;2.63;;
29550;SDS011;16488;52.396;10.696;2023-03-05T12:47:34;4.82;;;2.60;;
29550;SDS011;16488;52.396;10.696;2023-03-05T12:50:00;6.70;;;2.65;;
29550;SDS011;16488;52.396;10.696;2023-03-05T12:52:29;7.75;;;3.10;;
29550;SDS011;16488;52.396;10.696;2023-03-05T12:57:56;6.53;;;2.63;;
29550;SDS011;16488;52.396;10.696;2023-03-05T13:03:08;4.10;;;2.33;;
29550;SDS011;16488;52.396;10.696;2023-03-05T13:05:47;5.43;;;2.00;;
29550;SDS011;16488;52.396;10.696;2023-03-05T13:08:19;4.38;;;1.75;;
29550;SDS011;16488;52.396;10.696;2023-03-05T13:11:05;6.00;;;2.53;;
29550;SDS011;16488;52.396;10.696;2023-03-05T13:13:41;11.52;;;2.58;;
29550;SDS011;16488;52.396;10.696;2023-03-05T13:16:24;7.03;;;2.60;;
29550;SDS011;16488;52.396;10.696;2023-03-05T13:18:53;8.10;;;1.90;;
29550;SDS011;16488;52.396;10.696;2023-03-05T13:21:25;4.10;;;2.10;;
29550;SDS011;16488;52.396;10.696;2023-03-05T13:23:56;6.95;;;2.40;;
29550;SDS011;16488;52.396;10.696;2023-03-05T13:34:19;4.55;;;2.88;;
29550;SDS011;16488;52.396;10.696;2023-03-05T13:37:03;9.02;;;4.00;;
29550;SDS011;16488;52.396;10.696;2023-03-05T13:39:41;4.82;;;2.78;;
29550;SDS011;16488;52.396;10.696;2023-03-05T13:42:15;7.00;;;2.50;;
29550;SDS011;16488;52.396;10.696;2023-03-05T13:44:52;8.52;;;2.60;;
29550;SDS011;16488;52.396;10.696;2023-03-05T13:47:19;6.78;;;2.78;;
29550;SDS011;16488;52.396;10.696;2023-03-05T13:49:53;3.10;;;2.03;;
29550;SDS011;16488;52.396;10.696;2023-03-05T13:52:23;4.18;;;2.05;;
29550;SDS011;16488;52.396;10.696;2023-03-05T13:54:51;4.78;;;2.15;;
29550;SDS011;16488;52.396;10.696;2023-03-05T13:57:33;4.32;;;2.83;;
29550;SDS011;16488;52.396;10.696;2023-03-05T14:00:05;6.03;;;2.58;;
29550;SDS011;16488;52.396;10.696;2023-03-05T14:02:52;2.72;;;2.35;;
29550;SDS011;16488;52.396;10.696;2023-03-05T14:05:20;5.10;;;2.50;;
29550;SDS011;16488;52.396;10.696;2023-03-05T14:07:50;8.07;;;3.10;;
29550;SDS011;16488;52.396;10.696;2023-03-05T14:10:25;3.03;;;2.22;;
29550;SDS011;16488;52.396;10.696;2023-03-05T14:12:52;4.40;;;2.67;;
29550;SDS011;16488;52.396;10.696;2023-03-05T14:17:50;5.25;;;2.97;;
29550;SDS011;16488;52.396;10.696;2023-03-05T14:20:18;4.32;;;3.08;;
29550;SDS011;16488;52.396;10.696;2023-03-05T14:23:01;7.45;;;3.33;;
29550;SDS011;16488;52.396;10.696;2023-03-05T14:25:49;6.78;;;3.03;;
29550;SDS011;16488;52.396;10.696;2023-03-05T14:30:44;3.60;;;3.00;;
29550;SDS011;16488;52.396;10.696;2023-03-05T14:33:22;6.20;;;3.40;;
29550;SDS011;16488;52.396;10.696;2023-03-05T14:35:52;7.27;;;2.93;;
29550;SDS011;16488;52.396;10.696;2023-03-05T14:38:21;6.50;;;2.70;;
29550;SDS011;16488;52.396;10.696;2023-03-05T14:40:53;6.03;;;2.55;;
29550;SDS011;16488;52.396;10.696;2023-03-05T14:43:18;6.00;;;2.38;;
29550;SDS011;16488;52.396;10.696;2023-03-05T14:45:44;7.25;;;2.08;;
29550;SDS011;16488;52.396;10.696;2023-03-05T14:48:12;6.80;;;2.25;;
29550;SDS011;16488;52.396;10.696;2023-03-05T14:50:46;7.22;;;2.75;;
29550;SDS011;16488;52.396;10.696;2023-03-05T14:53:19;6.65;;;3.00;;
29550;SDS011;16488;52.396;10.696;2023-03-05T14:55:49;5.50;;;2.80;;
29550;SDS011;16488;52.396;10.696;2023-03-05T14:58:20;4.50;;;2.67;;
29550;SDS011;16488;52.396;10.696;2023-03-05T15:00:52;6.18;;;3.22;;
29550;SDS011;16488;52.396;10.696;2023-03-05T15:03:19;5.47;;;2.53;;
29550;SDS011;16488;52.396;10.696;2023-03-05T15:05:46;6.90;;;2.38;;
29550;SDS011;16488;52.396;10.696;2023-03-05T15:08:16;7.30;;;2.38;;
29550;SDS011;16488;52.396;10.696;2023-03-05T15:10:44;5.57;;;2.30;;
29550;SDS011;16488;52.396;10.696;2023-03-05T15:13:11;6.68;;;3.63;;
29550;SDS011;16488;52.396;10.696;2023-03-05T15:15:38;6.65;;;3.08;;
29550;SDS011;16488;52.396;10.696;2023-03-05T15:18:05;11.65;;;4.55;;
29550;SDS011;16488;52.396;10.696;2023-03-05T15:20:31;4.80;;;2.65;;
29550;SDS011;16488;52.396;10.696;2023-03-05T15:22:57;5.03;;;1.80;;
29550;SDS011;16488;52.396;10.696;2023-03-05T15:25:23;5.78;;;2.28;;
29550;SDS011;16488;52.396;10.696;2023-03-05T15:27:50;2.85;;;1.90;;
29550;SDS011;16488;52.396;10.696;2023-03-05T15:30:22;3.78;;;1.77;;
29550;SDS011;16488;52.396;10.696;2023-03-05T15:32:51;2.47;;;1.17;;
29550;SDS011;16488;52.396;10.696;2023-03-05T15:35:18;10.95;;;2.03;;
29550;SDS011;16488;52.396;10.696;2023-03-05T15:37:43;4.03;;;1.90;;
29550;SDS011;16488;52.396;10.696;2023-03-05T15:40:10;2.55;;;1.67;;
29550;SDS011;16488;52.396;10.696;2023-03-05T15:42:36;6.15;;;2.47;;
29550;SDS011;16488;52.396;10.696;2023-03-05T15:45:02;7.32;;;1.70;;
29550;SDS011;16488;52.396;10.696;2023-03-05T15:47:27;4.30;;;1.70;;
29550;SDS011;16488;52.396;10.696;2023-03-05T15:49:53;4.22;;;2.42;;
29550;SDS011;16488;52.396;10.696;2023-03-05T15:52:18;10.35;;;3.03;;
29550;SDS011;16488;52.396;10.696;2023-03-05T15:54:44;6.35;;;2.53;;
29550;SDS011;16488;52.396;10.696;2023-03-05T15:57:10;7.03;;;2.17;;
29550;SDS011;16488;52.396;10.696;2023-03-05T15:59:36;2.83;;;1.83;;
29550;SDS011;16488;52.396;10.696;2023-03-05T16:02:03;2.33;;;1.65;;
29550;SDS011;16488;52.396;10.696;2023-03-05T16:04:28;2.45;;;1.67;;
29550;SDS011;16488;52.396;10.696;2023-03-05T16:06:54;8.23;;;3.20;;
29550;SDS011;16488;52.396;10.696;2023-03-05T16:09:23;4.43;;;2.22;;
29550;SDS011;16488;52.396;10.696;2023-03-05T16:11:50;3.88;;;2.20;;
29550;SDS011;16488;52.396;10.696;2023-03-05T16:14:18;3.88;;;2.13;;
29550;SDS011;16488;52.396;10.696;2023-03-05T16:16:49;4.70;;;2.40;;
29550;SDS011;16488;52.396;10.696;2023-03-05T16:19:16;10.73;;;3.47;;
29550;SDS011;16488;52.396;10.696;2023-03-05T16:21:43;7.45;;;2.47;;
29550;SDS011;16488;52.396;10.696;2023-03-05T16:24:10;4.63;;;2.80;;
29550;SDS011;16488;52.396;10.696;2023-03-05T16:26:36;6.70;;;3.17;;
29550;SDS011;16488;52.396;10.696;2023-03-05T16:29:03;6.10;;;3.03;;
29550;SDS011;16488;52.396;10.696;2023-03-05T16:31:30;3.30;;;2.13;;